METAR AND TAF INFORMATION
METAR FOR KVOK
ADDS - METARS form results

(1243 UTC 24 January 2019)
Data provider http://aviationweather.gov/metar/data/
 
METAR text: KVOK 241241Z AUTO 00000KT 2 1/2SM +FZDZ BR OVC007 M10/M10 A2976 RMK AO2 SNE15SNB16E26FZDZB27 SLP100
Conditions at: KVOK (VOLK/CAMP DOUGLA, WI, US) observed 1241 UTC 24 January 2019
Temperature: -10.0°C (14°F)
Dewpoint: -10.0°C (14°F) [RH = 100%]
Pressure (altimeter): 29.76 inches Hg (1007.9 mb)
[Sea-level pressure: 1010.0 mb]
Winds: calm
Visibility: 2.50 miles (4.02 km)
Ceiling: 700 feet AGL
Clouds: overcast cloud deck at 700 feet AGL
Weather: +FZDZ BR  (heavy freezing drizzle, mist)

METAR text: KVOK 241235Z AUTO 00000KT 2 1/2SM FZDZ BR OVC007 M10/M10 A2976 RMK AO2 SNE15SNB16E26FZDZB27 SLP100
Conditions at: KVOK (VOLK/CAMP DOUGLA, WI, US) observed 1235 UTC 24 January 2019
Temperature: -10.0°C (14°F)
Dewpoint: -10.0°C (14°F) [RH = 100%]
Pressure (altimeter): 29.76 inches Hg (1007.9 mb)
[Sea-level pressure: 1010.0 mb]
Winds: calm
Visibility: 2.50 miles (4.02 km)
Ceiling: 700 feet AGL
Clouds: overcast cloud deck at 700 feet AGL
Weather: FZDZ BR  (freezing drizzle, mist)

METAR text: KVOK 241227Z AUTO 00000KT 2 1/2SM -FZDZ BR OVC008 M10/M11 A2976 RMK AO2 SNE15SNB16E26FZDZB27 SLP100
Conditions at: KVOK (VOLK/CAMP DOUGLA, WI, US) observed 1227 UTC 24 January 2019
Temperature: -10.0°C (14°F)
Dewpoint: -11.0°C (12°F) [RH = 92%]
Pressure (altimeter): 29.76 inches Hg (1007.9 mb)
[Sea-level pressure: 1010.0 mb]
Winds: calm
Visibility: 2.50 miles (4.02 km)
Ceiling: 800 feet AGL
Clouds: overcast cloud deck at 800 feet AGL
Weather: -FZDZ BR  (light freezing drizzle, mist)

METAR text: KVOK 241226Z AUTO 00000KT 2 1/2SM BR OVC008 M10/M11 A2976 RMK AO2 SNE15SNB16E26 SLP100
Conditions at: KVOK (VOLK/CAMP DOUGLA, WI, US) observed 1226 UTC 24 January 2019
Temperature: -10.0°C (14°F)
Dewpoint: -11.0°C (12°F) [RH = 92%]
Pressure (altimeter): 29.76 inches Hg (1007.9 mb)
[Sea-level pressure: 1010.0 mb]
Winds: calm
Visibility: 2.50 miles (4.02 km)
Ceiling: 800 feet AGL
Clouds: overcast cloud deck at 800 feet AGL
Weather: BR  (mist)

METAR text: KVOK 241216Z AUTO 00000KT 2 1/2SM -SN BR OVC008 M10/M11 A2976 RMK AO2 VIS 2 1/2V3 SNE15SNB16 CIG 008V010 SLP100
Conditions at: KVOK (VOLK/CAMP DOUGLA, WI, US) observed 1216 UTC 24 January 2019
Temperature: -10.0°C (14°F)
Dewpoint: -11.0°C (12°F) [RH = 92%]
Pressure (altimeter): 29.76 inches Hg (1007.9 mb)
[Sea-level pressure: 1010.0 mb]
Winds: calm
Visibility: 2.50 miles (4.02 km)
Ceiling: 800 feet AGL
Clouds: overcast cloud deck at 800 feet AGL
Weather: -SN BR  (light snow, mist)

METAR text: KVOK 241215Z AUTO 00000KT 2 1/2SM BR OVC008 M11/M11 A2976 RMK AO2 VIS 2 1/2V3 SNE15 CIG 008V010 SLP100
Conditions at: KVOK (VOLK/CAMP DOUGLA, WI, US) observed 1215 UTC 24 January 2019
Temperature: -11.0°C (12°F)
Dewpoint: -11.0°C (12°F) [RH = 100%]
Pressure (altimeter): 29.76 inches Hg (1007.9 mb)
[Sea-level pressure: 1010.0 mb]
Winds: calm
Visibility: 2.50 miles (4.02 km)
Ceiling: 800 feet AGL
Clouds: overcast cloud deck at 800 feet AGL
Weather: BR  (mist)

METAR text: KVOK 241213Z AUTO 00000KT 2 1/2SM -SN BR OVC008 M11/M11 A2976 RMK AO2 VIS 2 1/2V4 CIG 008V010 SLP100
Conditions at: KVOK (VOLK/CAMP DOUGLA, WI, US) observed 1213 UTC 24 January 2019
Temperature: -11.0°C (12°F)
Dewpoint: -11.0°C (12°F) [RH = 100%]
Pressure (altimeter): 29.76 inches Hg (1007.9 mb)
[Sea-level pressure: 1010.0 mb]
Winds: calm
Visibility: 2.50 miles (4.02 km)
Ceiling: 800 feet AGL
Clouds: overcast cloud deck at 800 feet AGL
Weather: -SN BR  (light snow, mist)

METAR text: KVOK 241211Z AUTO 00000KT 2 3/4SM -SN BR OVC010 M11/M11 A2976 RMK AO2 VIS 2 3/4V5 SLP100
Conditions at: KVOK (VOLK/CAMP DOUGLA, WI, US) observed 1211 UTC 24 January 2019
Temperature: -11.0°C (12°F)
Dewpoint: -11.0°C (12°F) [RH = 100%]
Pressure (altimeter): 29.76 inches Hg (1007.9 mb)
[Sea-level pressure: 1010.0 mb]
Winds: calm
Visibility: 2.75 miles (4.43 km)
Ceiling: 1000 feet AGL
Clouds: overcast cloud deck at 1000 feet AGL
Weather: -SN BR  (light snow, mist)

METAR text: KVOK 241156Z AUTO 00000KT 8SM -SN OVC010 M11/M11 A2975 RMK AO2 SNB47 CIG 010V012 OVC V BKN SLP097 P0000 60000 70004 T11091112 11108 21208 55004
Conditions at: KVOK (VOLK/CAMP DOUGLA, WI, US) observed 1156 UTC 24 January 2019
Temperature: -10.9°C (12°F)
Dewpoint: -11.2°C (12°F) [RH = 98%]
Pressure (altimeter): 29.75 inches Hg (1007.5 mb)
[Sea-level pressure: 1009.7 mb]
Winds: calm
Visibility: 8 miles (13 km)
Ceiling: 1000 feet AGL
Clouds: overcast cloud deck at 1000 feet AGL
Weather: -SN  (light snow)

METAR text: KVOK 241147Z AUTO 00000KT 10SM -SN BKN012 OVC018 M11/M11 A2975 RMK AO2 SNB47 SLP096
Conditions at: KVOK (VOLK/CAMP DOUGLA, WI, US) observed 1147 UTC 24 January 2019
Temperature: -11.0°C (12°F)
Dewpoint: -11.0°C (12°F) [RH = 100%]
Pressure (altimeter): 29.75 inches Hg (1007.5 mb)
[Sea-level pressure: 1009.6 mb]
Winds: calm
Visibility: 10 or more miles (16+ km)
Ceiling: 1200 feet AGL
Clouds: broken clouds at 1200 feet AGL
overcast cloud deck at 1800 feet AGL
Weather: -SN  (light snow)

Forecast for: AMD
Text: TAF AMD KVOK 241235Z 2412/2515 29009KT 6000 -FZDZ BKN008 OVC030 660001 620204 510102 QNH2975INS
Forecast period: 1200 UTC 24 January 2019 to 1500 UTC 25 January 2019
Forecast type: FROM: standard forecast or significant change
Winds: from the WNW (290 degrees) at 10 MPH (9 knots; 4.6 m/s)
Visibility: 4 miles (6 km)
Ceiling: 800 feet AGL
Clouds: broken clouds at 800 feet AGL
overcast cloud deck at 3000 feet AGL
Weather: -FZDZ  (light freezing drizzle)
Text: TEMPO 2412/2414 BKN006 620066
Forecast period: 1200 to 1400 UTC 24 January 2019
Forecast type: TEMPORARY: The following changes expected for less than half the time period
Winds: from the SSW (200 degrees) at 76 MPH (66 knots; 34.0 m/s)
Visibility: missing
Ceiling: 600 feet AGL
Clouds: broken clouds at 600 feet AGL
Weather: no significant weather forecast for this period
Text: BECMG 2412/2414 29009KT 6000 -SN BLSN BKN010 620107 510102 QNH2972INS
Forecast period: 1200 to 1600 UTC 24 January 2019
Forecast type: BECOMING: Conditions expected to become as follows by 1400 UTC 24 January 2019
Winds: from the WNW (290 degrees) at 10 MPH (9 knots; 4.6 m/s)
Visibility: 4 miles (6 km)
Ceiling: 1000 feet AGL
Clouds: broken clouds at 1000 feet AGL
Weather: -SN BLSN  (light snow, blowing snow)
Text: BECMG 2416/2417 30020G30KT 4800 -SN BLSN OVC020 620208 510003 QNH2980INS
Forecast period: 1600 UTC 24 January 2019 to 0400 UTC 25 January 2019
Forecast type: BECOMING: Conditions expected to become as follows by 1700 UTC 24 January 2019
Winds: from the WNW (300 degrees) at 23 MPH (20 knots; 10.3 m/s)
gusting to 34 MPH (30 knots; 15.4 m/s)
Visibility: 2.98 miles (4.80 km)
Ceiling: 2000 feet AGL
Clouds: overcast cloud deck at 2000 feet AGL
Weather: -SN BLSN  (light snow, blowing snow)
Text: BECMG 2504/2505 28012G18KT 8000 BLSN SCT020 BKN030 620305 510102 QNH3011INS
Forecast period: 0400 to 0600 UTC 25 January 2019
Forecast type: BECOMING: Conditions expected to become as follows by 0500 UTC 25 January 2019
Winds: from the W (280 degrees) at 14 MPH (12 knots; 6.2 m/s)
gusting to 21 MPH (18 knots; 9.3 m/s)
Visibility: 5 miles (8 km)
Ceiling: 3000 feet AGL
Clouds: scattered clouds at 2000 feet AGL
broken clouds at 3000 feet AGL
Weather: BLSN  (blowing snow)
Text: BECMG 2506/2507 29012KT 9999 NSW FEW030 SCT070 QNH3013INS TXM08/2415Z TNM25/2509Z
Forecast period: 0600 to 1500 UTC 25 January 2019
Forecast type: BECOMING: Conditions expected to become as follows by 0700 UTC 25 January 2019
Winds: from the WNW (290 degrees) at 14 MPH (12 knots; 6.2 m/s)
Visibility: 6 or more miles 10+ km)
Ceiling: at least 12,000 feet AGL
Clouds: few clouds at 3000 feet AGL
scattered clouds at 7000 feet AGL
Weather: NSW  (no significant weather)

 AIRPORT MAP

Esri Leaflet Quickstart
 RUNWAY INFORMATION
Runway 09 Runway length 9000 ft Runway width 150 ft
Runway elevation 912 ft Runway displaced threshold 0 ft Runway heading 89
Runway 27 Runway length 9000 ft Runway width 150 ft
Runway elevation 904 ft Runway displaced threshold 0 ft Runway heading 269

 AIRPORT FREQUENCIES
Type A/D Name APP/DEP Frequency 135.25 MHZ
Type CTAF Name CTAF Frequency 127.5 MHZ
Type GND Name GND Frequency 121.9 MHZ
Type MISC Name HARDWOOD R Frequency 132.025 MHZ
Type OPS Name SHEBOYGAN Frequency 26.04 MHZ
Type PTD Name PTD Frequency 37.22 MHZ
Type TWR Name TWR Frequency 127.5 MHZ

 AIRPORT NEAR NAVIGATION AIDS
Type TACAN Name Volk Frequency 110400 KHZ



Powered by Virtual Airlines Manager [v2.6.2]